METAR Data
IDs: Format: Raw Decoded Include TAF

Data at: 2349 UTC 24 Apr 2019

METAR for:KMCW (Mason City Muni, IA, US)
Text:KMCW 242253Z AUTO 19009KT 10SM CLR 21/06 A2979 RMK AO2 SLP083 T02110061
Temperature: 21.1°C ( 70°F)
Dewpoint: 6.1°C ( 43°F) [RH = 38%]
Pressure (altimeter):29.79 inches Hg (1008.9 mb) [Sea level pressure: 1008.3 mb]
Winds:from the S (190 degrees) at 10 MPH (9 knots; 4.6 m/s)
Visibility:10 or more sm (16+ km)
Ceiling:at least 12,000 feet AGL
Clouds:sky clear below 12,000 feet AGL
QC Flag:automated observation with no human augmentation